Terminal Aerodrome Forecast
Issued by NWS

Home | Current Version | Previous Version | Text Only | Print | Product List | Glossary On
Versions: 1 2 3 4 5 6 7 8 9 10 11 12 13 14 15 16
000
FTPQ31 PGUM 232329
TAFGUM
TAF

TAF
PGRO 232329Z 2400/2424 09011KT P6SM VCSH SCT013 SCT035
     FM240300 09012G20KT P6SM VCTS SCT012CB BKN035
      TEMPO 2403/2407 3SM +SHRA OVC015
     FM240700 11011KT P6SM SHRA SCT015 BKN030=

USA.gov is the U.S. government's official web portal to all federal, state and local government web resources and services.